Details From NTAA - Faaa
To NCRG - Rarotonga Intl
Flight Number -
Tags Generated
Created
Modified
Stats Distance 617 nm / 1,143 km
Max Altitude 0 ft / 0 m
Waypoints 3
Social Downloads 1
Likes 0
Share

Download

Looking for another format? Having issues loading an existing format? Contact us
Advertisement - Login to hide

Notes

Generated

Route

NTAA RG NCRG

ID Type Via Altitude (ft/m) Position (lat/lon) Dist (leg/tot) Name
O NTAA APT - 0 / 0 -17.56288 / -149.62043 - / 0 nm
RG VOR - 0 / 0 -21.20164 / -159.81436 617 / 617 nm RAROTONGA VOR-DME
O NCRG APT - 0 / 0 -21.20274 / -159.81677 0 / 617 nm

Altitude Profile

Advertisement - Login to hide

Weather


0- 5 10 15 20 25 30 35+ Temperature / °C

Clouds and Precipitation
Forecast for 2020-07-15 00:00 UTC. Updated 2 hours ago

Ground ~20,000 ft ~40,000 ft Winds

NTAA

Details ICAO NTAA (PPT)
Name Tahiti Faa'a Intl
Region French Polynesia
Timezone Pacific/Tahiti (UTC-10.0)
Stats Elevation 5 ft / 2 m (AMSL)
Location -17.553700° -149.607000°
Runways 1
Magnetic Variation 12.878° E

METAR

NTAA 142300Z 22005KT 200V270 9999 FEW013 SCT033 BKN053 27/22 Q1010 NOSIG

Decode

TAF

TAF NTAA 141700Z 1418/1524 VRB04KT 9999 FEW017CB SCT020 BKN045 PROB40 TEMPO 1421/1510 05015KT 3000 SHRA PROB30 TEMPO 1421/1506 VRB20G30KT 1000 TSRA FEW010 SCT014CB BKN017

Decode

Departure Runways

ID Width Length Bearing (true/mag) Surface Threshold Overrun Markings Lighting
04 148 ft / 45 m 11,238 ft / 3,425 m 54.10° / 41.23° ASPHALT 1,037 ft / 316 m 0 ft / 0 m PREC-APP EDGE THRESHOLD ALSF-II REIL-UNI
22 148 ft / 45 m 11,238 ft / 3,425 m 234.10° / 221.22° ASPHALT 577 ft / 176 m 0 ft / 0 m APP EDGE THRESHOLD ALSF-II REIL-OMNI

NCRG

Details ICAO NCRG (RAR)
Name Rarotonga Intl
Region Cook Islands
Timezone Pacific/Rarotonga (UTC-10.0)
Stats Elevation 19 ft / 6 m (AMSL)
Location -21.202600° -159.806000°
Runways 1
Magnetic Variation 13.990° E

METAR

NCRG 142300Z AUTO 10008KT 060V140 9999 SCT047/// 24/13 Q1015

Decode

TAF

TAF NCRG 141726Z 1418/1518 12007KT 9999 SCT020 BKN050 PROB40 TEMPO 1418/1506 12015G25KT

Decode

Destination Runways

ID Width Length Bearing (true/mag) Surface Threshold Overrun Markings Lighting
08 148 ft / 45 m 7,646 ft / 2,330 m 89.99° / 76.00° CONCRETE 410 ft / 125 m 92 ft / 28 m PREC-APP CENTERLINE EDGE THRESHOLD REIL-OMNI
26 148 ft / 45 m 7,646 ft / 2,330 m 269.98° / 255.99° CONCRETE 344 ft / 105 m 0 ft / 0 m PREC-APP CENTERLINE EDGE THRESHOLD REIL-OMNI

Approach Navaids

Runway Type Ident Frequency Range Bearing (true/mag) Slope Elevation
08 DME INO 109.90 MHz 18 nm / 33 km - - 19 ft / 6 m (AMSL)
08 LOC-ILS INO 109.90 MHz 18 nm / 33 km 89.79° / 75.80 ° - 19 ft / 6 m (AMSL)
08 GS INO 109.90 MHz 10 nm / 19 km 90.97° / 76.98 ° 3.00° 19 ft / 6 m (AMSL)
26 GS IAV 110.30 MHz 10 nm / 19 km 270.97° / 256.98 ° 3.00° 19 ft / 6 m (AMSL)
26 DME IAV 110.30 MHz 18 nm / 33 km - - 19 ft / 6 m (AMSL)
26 LOC-ILS IAV 110.30 MHz 18 nm / 33 km 270.19° / 256.20 ° - 19 ft / 6 m (AMSL)

Popular Alternatives